createdAt,value
2023-04-28T00:01:12.481Z,3.33
2023-04-28T00:03:39.077Z,2.75
2023-04-28T00:06:06.031Z,3.22
2023-04-28T00:08:32.850Z,3.20
2023-04-28T00:10:59.404Z,3.45
2023-04-28T00:13:25.797Z,3.72
2023-04-28T00:15:55.337Z,3.53
2023-04-28T00:18:22.051Z,3.53
2023-04-28T00:20:48.584Z,3.42
2023-04-28T00:23:15.576Z,2.83
2023-04-28T00:25:42.007Z,3.58
2023-04-28T00:28:08.608Z,3.38
2023-04-28T00:30:35.032Z,3.28
2023-04-28T00:33:01.529Z,4.05
2023-04-28T00:35:27.973Z,3.28
2023-04-28T00:37:54.433Z,2.97
2023-04-28T00:40:21.086Z,2.92
2023-04-28T00:42:49.822Z,4.05
2023-04-28T00:45:16.468Z,3.50
2023-04-28T00:47:43.113Z,3.25
2023-04-28T00:50:10.607Z,3.53
2023-04-28T00:52:38.305Z,4.40
2023-04-28T00:55:05.184Z,3.47
2023-04-28T00:57:32.193Z,3.20
2023-04-28T01:00:00.949Z,2.85
2023-04-28T01:02:27.748Z,3.35
2023-04-28T01:04:54.498Z,3.70
2023-04-28T01:07:21.505Z,3.05
2023-04-28T01:09:48.080Z,3.38
2023-04-28T01:12:14.525Z,3.90
2023-04-28T01:14:41.025Z,3.08
2023-04-28T01:17:08.368Z,3.63
2023-04-28T01:19:34.808Z,2.60
2023-04-28T01:22:01.214Z,2.78
2023-04-28T01:24:27.691Z,3.28
2023-04-28T01:26:54.158Z,3.30
2023-04-28T01:29:20.555Z,3.63
2023-04-28T01:31:46.985Z,2.95
2023-04-28T01:34:13.528Z,3.72
2023-04-28T01:36:40.145Z,3.75
2023-04-28T01:39:06.730Z,3.65
2023-04-28T01:41:36.258Z,3.00
2023-04-28T01:44:02.694Z,3.05
2023-04-28T01:46:29.128Z,3.70
2023-04-28T01:48:55.794Z,2.97
2023-04-28T01:51:22.197Z,3.25
2023-04-28T01:53:48.591Z,3.13
2023-04-28T01:56:15.027Z,3.38
2023-04-28T01:58:45.149Z,5.05
2023-04-28T02:01:11.602Z,3.50
2023-04-28T02:03:38.199Z,3.58
2023-04-28T02:06:05.150Z,3.35
2023-04-28T02:08:31.818Z,3.33
2023-04-28T02:10:58.386Z,3.30
2023-04-28T02:13:24.822Z,2.80
2023-04-28T02:15:51.304Z,4.55
2023-04-28T02:18:17.787Z,2.88
2023-04-28T02:20:44.193Z,3.67
2023-04-28T02:23:10.598Z,3.28
2023-04-28T02:25:37.092Z,2.88
2023-04-28T02:28:04.054Z,3.28
2023-04-28T02:30:30.452Z,2.53
2023-04-28T02:32:56.910Z,3.00
2023-04-28T02:35:23.336Z,3.15
2023-04-28T02:37:49.748Z,3.30
2023-04-28T02:40:17.268Z,3.25
2023-04-28T02:42:43.656Z,3.15
2023-04-28T02:45:10.291Z,3.17
2023-04-28T02:47:37.090Z,2.90
2023-04-28T02:50:03.890Z,3.70
2023-04-28T02:52:30.338Z,3.53
2023-04-28T02:54:57.354Z,3.08
2023-04-28T02:57:24.243Z,3.15
2023-04-28T02:59:50.737Z,3.08
2023-04-28T03:02:17.252Z,3.17
2023-04-28T03:04:43.746Z,3.15
2023-04-28T03:07:10.237Z,3.53
2023-04-28T03:09:36.613Z,2.72
2023-04-28T03:12:03.499Z,3.20
2023-04-28T03:14:29.906Z,3.75
2023-04-28T03:16:57.898Z,2.75
2023-04-28T03:19:24.380Z,3.03
2023-04-28T03:21:50.850Z,2.95
2023-04-28T03:24:17.483Z,3.47
2023-04-28T03:26:44.236Z,2.88
2023-04-28T03:29:10.720Z,3.00
2023-04-28T03:31:37.129Z,4.00
2023-04-28T03:34:04.396Z,4.70
2023-04-28T03:36:30.815Z,3.50
2023-04-28T03:39:00.292Z,3.45
2023-04-28T03:41:26.710Z,3.63
2023-04-28T03:43:53.365Z,2.95
2023-04-28T03:46:19.929Z,2.75
2023-04-28T03:48:46.369Z,3.60
2023-04-28T03:51:12.818Z,2.88
2023-04-28T03:53:39.339Z,2.60
2023-04-28T03:56:06.229Z,3.90
2023-04-28T03:58:34.655Z,3.13
2023-04-28T04:01:01.165Z,3.53
2023-04-28T04:03:28.033Z,3.45
2023-04-28T04:05:55.746Z,2.72
2023-04-28T04:08:22.225Z,3.00
2023-04-28T04:10:48.708Z,2.83
2023-04-28T04:13:15.173Z,2.90
2023-04-28T04:15:41.627Z,3.47
2023-04-28T04:18:08.365Z,2.83
2023-04-28T04:20:34.846Z,2.92
2023-04-28T04:23:02.042Z,2.90
2023-04-28T04:25:28.484Z,3.05
2023-04-28T04:27:55.007Z,2.50
2023-04-28T04:30:21.476Z,3.72
2023-04-28T04:32:48.046Z,4.47
2023-04-28T04:35:14.645Z,4.47
2023-04-28T04:37:41.083Z,4.68
2023-04-28T04:40:07.895Z,4.18
2023-04-28T04:42:34.393Z,3.78
2023-04-28T04:45:01.132Z,4.35
2023-04-28T04:47:28.225Z,3.85
2023-04-28T04:49:54.679Z,4.50
2023-04-28T04:52:21.122Z,4.35
2023-04-28T04:54:47.529Z,3.63
2023-04-28T04:57:14.086Z,4.22
2023-04-28T04:59:40.516Z,4.82
2023-04-28T05:02:06.978Z,4.47
2023-04-28T05:04:33.721Z,4.78
2023-04-28T05:07:00.210Z,5.00
2023-04-28T05:09:26.822Z,4.85
2023-04-28T05:11:53.368Z,5.28
2023-04-28T05:14:19.775Z,4.72
2023-04-28T05:16:46.306Z,4.75
2023-04-28T05:19:16.132Z,4.80
2023-04-28T05:21:42.545Z,5.55
2023-04-28T05:24:08.944Z,4.57
2023-04-28T05:26:36.178Z,4.90
2023-04-28T05:29:02.616Z,4.53
2023-04-28T05:31:29.354Z,4.93
2023-04-28T05:33:55.793Z,5.70
2023-04-28T05:36:24.410Z,4.35
2023-04-28T05:38:50.966Z,4.60
2023-04-28T05:41:17.388Z,3.95
2023-04-28T05:43:43.853Z,4.00
2023-04-28T05:46:28.388Z,3.83
2023-04-28T05:48:56.566Z,4.05
2023-04-28T05:51:23.123Z,4.20
2023-04-28T05:53:49.517Z,3.80
2023-04-28T05:56:17.112Z,4.90
2023-04-28T05:58:47.372Z,4.28
2023-04-28T06:01:13.862Z,4.70
2023-04-28T06:03:42.044Z,3.90
2023-04-28T06:06:11.860Z,4.80
2023-04-28T06:08:38.526Z,4.68
2023-04-28T06:11:05.399Z,4.35
2023-04-28T06:13:31.779Z,4.18
2023-04-28T06:15:58.264Z,5.32
2023-04-28T06:18:24.812Z,4.05
2023-04-28T06:20:51.377Z,4.80
2023-04-28T06:23:17.793Z,5.72
2023-04-28T06:25:44.428Z,5.65
2023-04-28T06:28:12.385Z,6.47
2023-04-28T06:30:38.860Z,3.92
2023-04-28T06:33:06.702Z,3.97
2023-04-28T06:35:36.344Z,3.75
2023-04-28T06:38:03.715Z,3.63
2023-04-28T06:40:30.160Z,2.83
2023-04-28T06:42:56.590Z,3.92
2023-04-28T06:45:22.995Z,3.90
2023-04-28T06:47:49.727Z,3.30
2023-04-28T06:50:16.297Z,3.35
2023-04-28T06:52:42.710Z,3.45
2023-04-28T06:55:11.885Z,2.78
2023-04-28T06:57:38.696Z,2.85
2023-04-28T07:00:06.665Z,2.97
2023-04-28T07:02:33.255Z,2.90
2023-04-28T07:04:59.845Z,2.75
2023-04-28T07:07:26.557Z,2.05
2023-04-28T07:09:53.563Z,2.30
2023-04-28T07:12:23.007Z,2.80
2023-04-28T07:14:50.873Z,3.58
2023-04-28T07:17:17.337Z,2.47
2023-04-28T07:19:43.724Z,2.17
2023-04-28T07:22:10.081Z,3.28
2023-04-28T07:24:36.526Z,2.80
2023-04-28T07:27:03.757Z,2.42
2023-04-28T07:29:35.248Z,2.20
2023-04-28T07:32:02.241Z,2.08
2023-04-28T07:34:28.894Z,1.65
2023-04-28T07:36:55.376Z,1.77
2023-04-28T07:39:21.850Z,2.03
2023-04-28T07:41:48.262Z,1.67
2023-04-28T07:44:14.910Z,1.63
2023-04-28T07:46:41.563Z,1.73
2023-04-28T07:49:08.512Z,1.50
2023-04-28T07:51:35.012Z,1.50
2023-04-28T07:54:01.436Z,1.40
2023-04-28T07:56:28.203Z,1.40
2023-04-28T07:58:54.609Z,1.45
2023-04-28T08:01:21.112Z,1.20
2023-04-28T08:03:47.807Z,1.25
2023-04-28T08:06:14.514Z,1.13
2023-04-28T08:08:40.944Z,1.20
2023-04-28T08:11:08.277Z,1.35
2023-04-28T08:13:34.853Z,1.25
2023-04-28T08:16:01.480Z,1.02
2023-04-28T08:18:28.566Z,2.25
2023-04-28T08:20:55.189Z,1.30
2023-04-28T08:23:21.859Z,1.00
2023-04-28T08:25:50.809Z,1.05
2023-04-28T08:28:20.101Z,1.00
2023-04-28T08:30:46.955Z,0.90
2023-04-28T08:33:13.387Z,0.70
2023-04-28T08:35:40.078Z,0.70
2023-04-28T08:38:07.198Z,1.00
2023-04-28T08:40:33.594Z,0.77
2023-04-28T08:43:00.290Z,0.57
2023-04-28T08:45:28.898Z,0.70
2023-04-28T08:47:56.901Z,0.55
2023-04-28T08:50:23.716Z,0.57
2023-04-28T08:52:52.128Z,0.45
2023-04-28T08:55:18.904Z,0.50
2023-04-28T08:57:46.222Z,0.50
2023-04-28T09:00:13.049Z,0.60
2023-04-28T09:02:42.987Z,0.57
2023-04-28T09:05:10.328Z,0.65
2023-04-28T09:07:36.915Z,0.55
2023-04-28T09:10:17.814Z,0.50
2023-04-28T09:12:44.579Z,0.77
2023-04-28T09:15:11.071Z,0.52
2023-04-28T09:17:58.319Z,0.63
2023-04-28T09:20:25.899Z,0.50
2023-04-28T09:22:53.290Z,0.57
2023-04-28T09:25:22.029Z,0.50
2023-04-28T09:27:49.235Z,0.60
2023-04-28T09:30:16.278Z,0.55
2023-04-28T09:32:45.525Z,0.60
2023-04-28T09:35:12.002Z,0.60
2023-04-28T09:37:38.430Z,0.60
2023-04-28T09:40:09.411Z,0.65
2023-04-28T09:45:03.663Z,0.45
2023-04-28T09:47:32.745Z,0.63
2023-04-28T09:50:00.460Z,0.50
2023-04-28T09:52:27.175Z,0.75
2023-04-28T09:54:54.502Z,0.60
2023-04-28T09:57:22.219Z,0.50
2023-04-28T09:59:49.629Z,0.40
2023-04-28T10:04:07.133Z,0.77
2023-04-28T10:05:08.568Z,0.50
2023-04-28T10:07:35.930Z,0.40
2023-04-28T10:10:04.438Z,0.50
2023-04-28T10:12:32.626Z,1.00
2023-04-28T10:14:59.952Z,0.50
2023-04-28T10:17:28.370Z,0.90
2023-04-28T10:19:55.332Z,0.50
2023-04-28T10:22:35.212Z,0.75
2023-04-28T10:25:07.746Z,0.80
2023-04-28T10:27:34.999Z,1.15
2023-04-28T10:30:26.486Z,0.90
2023-04-28T10:33:21.341Z,0.52
2023-04-28T10:35:48.099Z,0.40
2023-04-28T10:38:15.603Z,0.60
2023-04-28T10:40:42.773Z,0.50
2023-04-28T10:43:10.612Z,0.50
2023-04-28T10:45:50.367Z,0.77
2023-04-28T10:48:17.188Z,0.65
2023-04-28T10:51:07.562Z,0.70
2023-04-28T10:53:47.128Z,0.60
2023-04-28T10:56:25.317Z,0.70
2023-04-28T10:58:55.422Z,0.43
2023-04-28T11:01:22.061Z,0.38
2023-04-28T11:03:54.387Z,0.40
2023-04-28T11:06:32.123Z,0.50
2023-04-28T11:09:00.807Z,0.43
2023-04-28T11:11:32.500Z,0.60
2023-04-28T11:14:18.094Z,0.50
2023-04-28T11:16:51.706Z,0.50
2023-04-28T11:19:22.230Z,0.65
2023-04-28T11:21:48.942Z,0.70
2023-04-28T11:24:15.536Z,0.30
2023-04-28T11:26:42.243Z,0.40
2023-04-28T11:29:09.175Z,0.65
2023-04-28T11:31:38.816Z,0.80
2023-04-28T11:34:06.231Z,0.85
2023-04-28T11:36:33.791Z,0.82
2023-04-28T11:39:00.530Z,0.70
2023-04-28T11:41:27.159Z,0.50
2023-04-28T11:43:53.600Z,0.70
2023-04-28T11:46:20.805Z,0.50
2023-04-28T11:49:00.498Z,0.50
2023-04-28T11:51:33.014Z,0.67
2023-04-28T11:53:59.638Z,0.60
2023-04-28T11:56:26.646Z,0.55
2023-04-28T11:59:04.224Z,1.00
2023-04-28T12:01:31.458Z,0.57
2023-04-28T12:03:58.079Z,0.60
2023-04-28T12:06:24.637Z,0.90
2023-04-28T12:08:54.277Z,0.80
2023-04-28T12:11:22.567Z,0.65
2023-04-28T12:14:05.845Z,0.70
2023-04-28T12:16:44.219Z,0.52
2023-04-28T12:19:11.815Z,0.77
2023-04-28T12:21:39.705Z,0.75
2023-04-28T12:24:20.045Z,0.88
2023-04-28T12:29:32.056Z,0.95
2023-04-28T12:31:58.609Z,0.98
2023-04-28T12:34:25.146Z,0.80
2023-04-28T12:36:51.550Z,1.10
2023-04-28T12:39:19.968Z,0.80
2023-04-28T12:41:46.722Z,0.85
2023-04-28T12:44:13.131Z,0.90
2023-04-28T12:46:39.624Z,0.80
2023-04-28T12:49:06.118Z,0.82
2023-04-28T12:51:36.569Z,1.10
2023-04-28T12:54:04.197Z,0.80
2023-04-28T12:56:30.704Z,0.77
2023-04-28T12:58:57.080Z,0.70
2023-04-28T13:01:23.487Z,1.05
2023-04-28T13:03:51.232Z,0.80
2023-04-28T13:06:18.122Z,0.80
2023-04-28T13:08:44.976Z,1.10
2023-04-28T13:11:21.835Z,0.88
2023-04-28T13:13:49.469Z,1.10
2023-04-28T13:16:15.989Z,0.90
2023-04-28T13:18:42.543Z,0.90
2023-04-28T13:21:08.994Z,0.68
2023-04-28T13:23:35.426Z,0.70
2023-04-28T13:26:01.858Z,0.63
2023-04-28T13:28:28.318Z,0.95
2023-04-28T13:30:54.824Z,0.70
2023-04-28T13:33:21.490Z,0.70
2023-04-28T13:35:47.912Z,0.60
2023-04-28T13:38:14.316Z,0.60
2023-04-28T13:40:42.348Z,0.82
2023-04-28T13:43:08.878Z,0.50
2023-04-28T13:45:35.497Z,0.60
2023-04-28T13:48:03.390Z,0.65
2023-04-28T13:50:32.634Z,0.70
2023-04-28T13:52:59.506Z,1.08
2023-04-28T13:55:28.297Z,0.60
2023-04-28T13:57:55.187Z,0.80
2023-04-28T14:00:24.822Z,0.73
2023-04-28T14:02:51.548Z,1.20
2023-04-28T14:05:18.080Z,0.70
2023-04-28T14:07:44.903Z,0.70
2023-04-28T14:10:11.920Z,0.70
2023-04-28T14:12:38.451Z,1.77
2023-04-28T14:15:08.234Z,0.73
2023-04-28T14:17:34.820Z,0.95
2023-04-28T14:20:01.855Z,0.65
2023-04-28T14:22:28.533Z,0.77
2023-04-28T14:24:55.022Z,0.90
2023-04-28T14:27:21.915Z,0.90
2023-04-28T14:29:48.419Z,0.90
2023-04-28T14:32:16.289Z,0.70
2023-04-28T14:34:42.982Z,0.80
2023-04-28T14:37:09.498Z,0.75
2023-04-28T14:39:36.134Z,0.70
2023-04-28T14:42:06.509Z,0.90
2023-04-28T14:44:32.880Z,0.95
2023-04-28T14:46:59.699Z,0.98
2023-04-28T14:49:27.609Z,0.90
2023-04-28T14:51:54.061Z,1.08
2023-04-28T14:54:21.842Z,0.95
2023-04-28T14:56:51.125Z,0.80
2023-04-28T14:59:18.786Z,0.98
2023-04-28T15:01:45.281Z,1.10
2023-04-28T15:04:12.435Z,0.85
2023-04-28T15:06:39.115Z,1.00
2023-04-28T15:09:05.606Z,0.80
2023-04-28T15:11:32.047Z,1.20
2023-04-28T15:13:58.607Z,0.80
2023-04-28T15:16:25.106Z,1.25
2023-04-28T15:18:51.527Z,1.08
2023-04-28T15:21:18.001Z,1.05
2023-04-28T15:23:44.462Z,1.70
2023-04-28T15:26:11.051Z,1.50
2023-04-28T15:28:38.234Z,1.00
2023-04-28T15:31:05.272Z,0.80
2023-04-28T15:33:31.753Z,0.90
2023-04-28T15:35:58.153Z,1.20
2023-04-28T15:38:24.574Z,0.75
2023-04-28T15:40:51.007Z,0.90
2023-04-28T15:43:17.557Z,0.80
2023-04-28T15:45:46.890Z,1.10
2023-04-28T15:48:13.762Z,1.70
2023-04-28T15:50:40.617Z,0.82
2023-04-28T15:53:07.136Z,0.90
2023-04-28T15:55:33.773Z,0.90
2023-04-28T15:58:00.811Z,0.80
2023-04-28T16:00:27.904Z,1.20
2023-04-28T16:02:54.434Z,1.00
2023-04-28T16:05:21.007Z,0.85
2023-04-28T16:07:47.560Z,1.33
2023-04-28T16:10:14.914Z,0.95
2023-04-28T16:12:41.864Z,1.17
2023-04-28T16:15:09.472Z,1.33
2023-04-28T16:17:38.031Z,1.15
2023-04-28T16:20:06.043Z,1.00
2023-04-28T16:22:32.536Z,0.90
2023-04-28T16:25:00.793Z,0.93
2023-04-28T16:27:27.204Z,0.90
2023-04-28T16:29:53.592Z,0.90
2023-04-28T16:32:20.065Z,1.02
2023-04-28T16:34:46.505Z,0.90
2023-04-28T16:37:12.939Z,1.00
2023-04-28T16:39:39.372Z,1.10
2023-04-28T16:42:06.027Z,1.00
2023-04-28T16:44:32.548Z,1.58
2023-04-28T16:46:59.264Z,0.88
2023-04-28T16:49:29.341Z,0.63
2023-04-28T16:51:56.729Z,0.83
2023-04-28T16:54:23.985Z,0.90
2023-04-28T16:56:50.778Z,0.88
2023-04-28T16:59:17.448Z,0.80
2023-04-28T17:01:43.911Z,0.90
2023-04-28T17:04:10.637Z,1.00
2023-04-28T17:06:39.652Z,3.00
2023-04-28T17:09:06.344Z,1.90
2023-04-28T17:11:32.811Z,0.80
2023-04-28T17:13:59.394Z,1.00
2023-04-28T17:16:25.931Z,0.80
2023-04-28T17:18:53.021Z,0.88
2023-04-28T17:21:19.445Z,1.10
2023-04-28T17:23:45.888Z,0.70
2023-04-28T17:26:12.517Z,0.90
2023-04-28T17:28:40.871Z,1.80
2023-04-28T17:31:07.535Z,0.90
2023-04-28T17:33:33.961Z,1.65
2023-04-28T17:36:02.130Z,0.98
2023-04-28T17:38:28.571Z,0.93
2023-04-28T17:40:54.997Z,0.98
2023-04-28T17:43:21.815Z,0.88
2023-04-28T17:45:48.189Z,1.13
2023-04-28T17:48:14.669Z,0.90
2023-04-28T17:50:41.309Z,0.80
2023-04-28T17:53:07.698Z,0.90
2023-04-28T17:55:34.131Z,0.90
2023-04-28T17:58:00.550Z,1.33
2023-04-28T18:00:27.103Z,0.77
2023-04-28T18:02:55.151Z,0.70
2023-04-28T18:05:24.299Z,0.90
2023-04-28T18:07:51.018Z,1.00
2023-04-28T18:10:17.769Z,0.95
2023-04-28T18:12:44.955Z,1.10
2023-04-28T18:15:11.662Z,1.17
2023-04-28T18:17:38.179Z,1.00
2023-04-28T18:20:06.972Z,1.30
2023-04-28T18:22:33.487Z,1.05
2023-04-28T18:24:59.968Z,1.15
2023-04-28T18:27:26.502Z,0.88
2023-04-28T18:29:52.963Z,0.80
2023-04-28T18:32:19.395Z,0.88
2023-04-28T18:34:46.229Z,1.00
2023-04-28T18:37:12.598Z,0.88
2023-04-28T18:39:39.016Z,1.20
2023-04-28T18:42:05.654Z,1.02
2023-04-28T18:44:32.175Z,1.00
2023-04-28T18:46:58.652Z,1.02
2023-04-28T18:49:25.787Z,1.27
2023-04-28T18:51:52.286Z,1.10
2023-04-28T18:54:18.661Z,1.73
2023-04-28T18:56:45.308Z,1.55
2023-04-28T18:59:12.006Z,2.05
2023-04-28T19:01:38.738Z,1.70
2023-04-28T19:04:05.825Z,1.42
2023-04-28T19:06:32.617Z,3.10
2023-04-28T19:08:59.164Z,3.65
2023-04-28T19:11:25.861Z,4.72
2023-04-28T19:13:52.426Z,6.80
2023-04-28T19:16:19.481Z,2.63
2023-04-28T19:18:46.228Z,1.77
2023-04-28T19:21:15.327Z,2.80
2023-04-28T19:23:41.843Z,2.30
2023-04-28T19:26:09.017Z,1.88
2023-04-28T19:28:35.939Z,1.30
2023-04-28T19:31:02.758Z,1.15
2023-04-28T19:33:29.270Z,1.50
2023-04-28T19:35:55.702Z,1.33
2023-04-28T19:38:25.433Z,1.15
2023-04-28T19:40:58.380Z,1.33
2023-04-28T19:43:24.848Z,0.98
2023-04-28T19:45:51.529Z,1.08
2023-04-28T19:48:18.795Z,1.25
2023-04-28T19:50:45.481Z,0.98
2023-04-28T19:53:12.881Z,1.10
2023-04-28T19:55:39.324Z,1.13
2023-04-28T19:58:06.817Z,1.10
2023-04-28T20:00:33.275Z,1.52
2023-04-28T20:03:00.214Z,0.82
2023-04-28T20:05:26.931Z,1.30
2023-04-28T20:07:55.987Z,1.45
2023-04-28T20:10:23.379Z,2.65
2023-04-28T20:12:53.854Z,1.50
2023-04-28T20:15:20.795Z,1.83
2023-04-28T20:17:47.396Z,2.58
2023-04-28T20:20:13.831Z,1.45
2023-04-28T20:22:41.084Z,1.13
2023-04-28T20:25:09.979Z,1.08
2023-04-28T20:27:36.583Z,1.02
2023-04-28T20:30:03.843Z,1.17
2023-04-28T20:32:30.989Z,1.00
2023-04-28T20:34:57.481Z,1.08
2023-04-28T20:37:25.852Z,1.30
2023-04-28T20:39:52.883Z,1.50
2023-04-28T20:42:19.375Z,1.00
2023-04-28T20:44:46.578Z,1.20
2023-04-28T20:47:15.940Z,1.48
2023-04-28T20:49:42.403Z,1.05
2023-04-28T20:52:09.071Z,1.00
2023-04-28T20:54:38.541Z,1.20
2023-04-28T20:57:05.054Z,1.08
2023-04-28T20:59:32.618Z,1.20
2023-04-28T21:01:59.730Z,1.20
2023-04-28T21:04:26.545Z,1.10
2023-04-28T21:06:53.392Z,0.82
2023-04-28T21:09:20.877Z,1.20
2023-04-28T21:11:48.019Z,1.30
2023-04-28T21:14:15.400Z,1.27
2023-04-28T21:16:43.519Z,1.05
2023-04-28T21:19:10.843Z,1.48
2023-04-28T21:21:37.687Z,1.50
2023-04-28T21:24:05.026Z,1.25
2023-04-28T21:26:31.578Z,1.17
2023-04-28T21:28:58.000Z,1.10
2023-04-28T21:31:25.342Z,1.27
2023-04-28T21:33:51.848Z,1.00
2023-04-28T21:36:18.455Z,2.00
2023-04-28T21:38:44.999Z,1.27
2023-04-28T21:41:12.992Z,0.85
2023-04-28T21:43:39.488Z,0.90
2023-04-28T21:46:05.972Z,1.10
2023-04-28T21:48:32.449Z,1.27
2023-04-28T21:50:59.868Z,1.10
2023-04-28T21:53:26.433Z,1.13
2023-04-28T21:55:52.907Z,1.02
2023-04-28T21:58:19.354Z,0.90
2023-04-28T22:00:47.230Z,0.85
2023-04-28T22:03:15.238Z,1.63
2023-04-28T22:05:42.272Z,1.30
2023-04-28T22:08:09.011Z,1.20
2023-04-28T22:10:35.797Z,1.15
2023-04-28T22:13:02.633Z,1.10
2023-04-28T22:15:29.069Z,1.40
2023-04-28T22:17:55.516Z,1.13
2023-04-28T22:20:22.025Z,1.20
2023-04-28T22:22:48.401Z,1.00
2023-04-28T22:25:14.870Z,1.10
2023-04-28T22:27:41.330Z,1.30
2023-04-28T22:30:08.577Z,1.00
2023-04-28T22:32:35.071Z,1.00
2023-04-28T22:35:01.550Z,2.20
2023-04-28T22:37:27.991Z,1.40
2023-04-28T22:39:54.455Z,0.95
2023-04-28T22:42:20.896Z,1.35
2023-04-28T22:44:47.320Z,1.13
2023-04-28T22:47:13.719Z,1.23
2023-04-28T22:49:40.412Z,1.10
2023-04-28T22:52:06.836Z,1.55
2023-04-28T22:54:33.238Z,1.30
2023-04-28T22:56:59.682Z,1.27
2023-04-28T22:59:26.569Z,1.27
2023-04-28T23:01:56.869Z,1.20
2023-04-28T23:04:23.686Z,1.20
2023-04-28T23:06:50.417Z,1.20
2023-04-28T23:09:16.914Z,1.05
2023-04-28T23:11:43.403Z,1.40
2023-04-28T23:14:09.873Z,1.10
2023-04-28T23:16:36.549Z,1.15
2023-04-28T23:19:03.269Z,1.30
2023-04-28T23:21:29.702Z,1.20
2023-04-28T23:23:56.153Z,1.27
2023-04-28T23:26:24.649Z,1.45
2023-04-28T23:28:51.094Z,1.33
2023-04-28T23:31:17.602Z,1.20
2023-04-28T23:33:44.024Z,1.27
2023-04-28T23:36:11.678Z,1.25
2023-04-28T23:38:38.102Z,1.48
2023-04-28T23:41:06.299Z,1.30
2023-04-28T23:43:32.730Z,1.13
2023-04-28T23:45:59.260Z,1.60
2023-04-28T23:48:25.691Z,1.15
2023-04-28T23:50:52.094Z,1.65
2023-04-28T23:53:18.550Z,1.10
2023-04-28T23:55:44.997Z,1.20
2023-04-28T23:58:11.468Z,1.10
